sensor_id;sensor_type;location;lat;lon;timestamp;pressure;altitude;pressure_sealevel;temperature;humidity
11343;BME280;5726;42.160;24.746;2024-02-21T00:01:35;100327.84;;;9.37;100.00
11343;BME280;5726;42.160;24.746;2024-02-21T00:04:00;100334.03;;;9.43;100.00
11343;BME280;5726;42.160;24.746;2024-02-21T00:06:26;100325.75;;;9.39;100.00
11343;BME280;5726;42.160;24.746;2024-02-21T00:08:51;100326.84;;;9.48;100.00
11343;BME280;5726;42.160;24.746;2024-02-21T00:11:17;100329.34;;;9.64;100.00
11343;BME280;5726;42.160;24.746;2024-02-21T00:13:42;100320.41;;;9.39;100.00
11343;BME280;5726;42.160;24.746;2024-02-21T00:16:08;100313.38;;;9.28;100.00
11343;BME280;5726;42.160;24.746;2024-02-21T00:18:33;100329.41;;;9.28;100.00
11343;BME280;5726;42.160;24.746;2024-02-21T00:20:59;100315.03;;;9.39;100.00
11343;BME280;5726;42.160;24.746;2024-02-21T00:23:27;100323.41;;;9.57;100.00
11343;BME280;5726;42.160;24.746;2024-02-21T00:25:53;100324.75;;;9.60;100.00
11343;BME280;5726;42.160;24.746;2024-02-21T00:28:19;100318.03;;;9.57;100.00
11343;BME280;5726;42.160;24.746;2024-02-21T00:30:45;100318.03;;;9.52;100.00
11343;BME280;5726;42.160;24.746;2024-02-21T00:33:13;100302.97;;;9.42;100.00
11343;BME280;5726;42.160;24.746;2024-02-21T00:35:39;100309.47;;;9.55;100.00
11343;BME280;5726;42.160;24.746;2024-02-21T00:38:04;100302.50;;;9.50;100.00
11343;BME280;5726;42.160;24.746;2024-02-21T00:40:30;100303.16;;;9.15;100.00
11343;BME280;5726;42.160;24.746;2024-02-21T00:42:56;100300.16;;;9.12;100.00
11343;BME280;5726;42.160;24.746;2024-02-21T00:45:21;100295.78;;;9.47;100.00
11343;BME280;5726;42.160;24.746;2024-02-21T00:47:47;100295.66;;;9.12;100.00
11343;BME280;5726;42.160;24.746;2024-02-21T00:50:12;100291.41;;;9.21;100.00
11343;BME280;5726;42.160;24.746;2024-02-21T00:52:38;100297.72;;;9.05;100.00
11343;BME280;5726;42.160;24.746;2024-02-21T00:55:04;100300.31;;;8.91;100.00
11343;BME280;5726;42.160;24.746;2024-02-21T00:57:30;100294.81;;;9.07;100.00
11343;BME280;5726;42.160;24.746;2024-02-21T00:59:55;100294.53;;;9.04;100.00
11343;BME280;5726;42.160;24.746;2024-02-21T01:02:21;100286.50;;;9.08;100.00
11343;BME280;5726;42.160;24.746;2024-02-21T01:04:46;100290.75;;;9.04;100.00
11343;BME280;5726;42.160;24.746;2024-02-21T01:07:12;100287.28;;;9.04;100.00
11343;BME280;5726;42.160;24.746;2024-02-21T01:09:37;100281.16;;;9.08;100.00
11343;BME280;5726;42.160;24.746;2024-02-21T01:12:03;100281.00;;;8.79;100.00
11343;BME280;5726;42.160;24.746;2024-02-21T01:14:28;100277.91;;;8.97;100.00
11343;BME280;5726;42.160;24.746;2024-02-21T01:16:54;100274.50;;;9.11;100.00
11343;BME280;5726;42.160;24.746;2024-02-21T01:19:19;100278.16;;;8.95;100.00
11343;BME280;5726;42.160;24.746;2024-02-21T01:21:45;100273.31;;;8.87;100.00
11343;BME280;5726;42.160;24.746;2024-02-21T01:24:10;100268.47;;;8.84;100.00
11343;BME280;5726;42.160;24.746;2024-02-21T01:26:36;100267.72;;;8.94;100.00
11343;BME280;5726;42.160;24.746;2024-02-21T01:29:01;100265.41;;;8.66;100.00
11343;BME280;5726;42.160;24.746;2024-02-21T01:31:27;100267.03;;;8.72;100.00
11343;BME280;5726;42.160;24.746;2024-02-21T01:33:52;100263.06;;;8.79;100.00
11343;BME280;5726;42.160;24.746;2024-02-21T01:36:18;100269.53;;;8.83;100.00
11343;BME280;5726;42.160;24.746;2024-02-21T01:38:43;100270.13;;;8.95;100.00
11343;BME280;5726;42.160;24.746;2024-02-21T01:41:09;100262.94;;;9.01;100.00
11343;BME280;5726;42.160;24.746;2024-02-21T01:43:34;100273.66;;;9.01;100.00
11343;BME280;5726;42.160;24.746;2024-02-21T01:46:00;100260.34;;;9.20;100.00
11343;BME280;5726;42.160;24.746;2024-02-21T01:48:27;100262.06;;;9.46;100.00
11343;BME280;5726;42.160;24.746;2024-02-21T01:50:54;100257.22;;;9.33;100.00
11343;BME280;5726;42.160;24.746;2024-02-21T01:53:30;100253.44;;;9.34;100.00
11343;BME280;5726;42.160;24.746;2024-02-21T01:55:58;100246.25;;;9.35;100.00
11343;BME280;5726;42.160;24.746;2024-02-21T01:58:23;100249.91;;;9.19;100.00
11343;BME280;5726;42.160;24.746;2024-02-21T02:00:50;100249.31;;;9.02;100.00
11343;BME280;5726;42.160;24.746;2024-02-21T02:03:16;100253.81;;;8.92;100.00
11343;BME280;5726;42.160;24.746;2024-02-21T02:05:48;100263.41;;;8.93;100.00
11343;BME280;5726;42.160;24.746;2024-02-21T02:08:19;100245.59;;;9.13;100.00
11343;BME280;5726;42.160;24.746;2024-02-21T02:10:45;100249.72;;;9.35;100.00
11343;BME280;5726;42.160;24.746;2024-02-21T02:13:14;100253.22;;;9.51;100.00
11343;BME280;5726;42.160;24.746;2024-02-21T02:15:40;100245.50;;;9.64;100.00
11343;BME280;5726;42.160;24.746;2024-02-21T02:18:06;100246.06;;;9.76;100.00
11343;BME280;5726;42.160;24.746;2024-02-21T02:20:31;100242.88;;;9.89;99.54
11343;BME280;5726;42.160;24.746;2024-02-21T02:22:59;100245.03;;;9.92;98.22
11343;BME280;5726;42.160;24.746;2024-02-21T02:25:26;100249.03;;;9.89;98.28
11343;BME280;5726;42.160;24.746;2024-02-21T02:27:52;100248.84;;;10.10;98.37
11343;BME280;5726;42.160;24.746;2024-02-21T02:30:17;100242.94;;;9.99;99.42
11343;BME280;5726;42.160;24.746;2024-02-21T02:32:46;100242.84;;;9.69;100.00
11343;BME280;5726;42.160;24.746;2024-02-21T02:35:12;100250.88;;;9.79;100.00
11343;BME280;5726;42.160;24.746;2024-02-21T02:37:37;100251.41;;;9.66;100.00
11343;BME280;5726;42.160;24.746;2024-02-21T02:40:07;100250.09;;;9.78;100.00
11343;BME280;5726;42.160;24.746;2024-02-21T02:42:32;100258.41;;;9.72;100.00
11343;BME280;5726;42.160;24.746;2024-02-21T02:44:58;100252.47;;;9.70;100.00
11343;BME280;5726;42.160;24.746;2024-02-21T02:47:23;100249.84;;;9.75;100.00
11343;BME280;5726;42.160;24.746;2024-02-21T02:49:49;100255.19;;;9.75;100.00
11343;BME280;5726;42.160;24.746;2024-02-21T02:52:18;100247.69;;;9.77;100.00
11343;BME280;5726;42.160;24.746;2024-02-21T02:54:44;100250.69;;;9.95;100.00
11343;BME280;5726;42.160;24.746;2024-02-21T02:57:10;100264.38;;;10.03;100.00
11343;BME280;5726;42.160;24.746;2024-02-21T02:59:36;100256.00;;;9.85;100.00
11343;BME280;5726;42.160;24.746;2024-02-21T03:02:01;100259.97;;;9.73;100.00
11343;BME280;5726;42.160;24.746;2024-02-21T03:04:27;100253.53;;;9.54;100.00
11343;BME280;5726;42.160;24.746;2024-02-21T03:06:53;100252.44;;;9.50;100.00
11343;BME280;5726;42.160;24.746;2024-02-21T03:09:18;100257.53;;;9.56;100.00
11343;BME280;5726;42.160;24.746;2024-02-21T03:11:44;100257.31;;;9.73;100.00
11343;BME280;5726;42.160;24.746;2024-02-21T03:14:10;100253.56;;;9.74;100.00
11343;BME280;5726;42.160;24.746;2024-02-21T03:16:36;100256.75;;;9.56;100.00
11343;BME280;5726;42.160;24.746;2024-02-21T03:19:01;100250.84;;;9.64;100.00
11343;BME280;5726;42.160;24.746;2024-02-21T03:21:27;100246.59;;;9.63;100.00
11343;BME280;5726;42.160;24.746;2024-02-21T03:23:52;100254.09;;;9.76;100.00
11343;BME280;5726;42.160;24.746;2024-02-21T03:26:18;100252.47;;;9.70;100.00
11343;BME280;5726;42.160;24.746;2024-02-21T03:28:44;100246.63;;;9.83;100.00
11343;BME280;5726;42.160;24.746;2024-02-21T03:31:13;100242.88;;;9.89;100.00
11343;BME280;5726;42.160;24.746;2024-02-21T03:33:42;100244.44;;;9.65;100.00
11343;BME280;5726;42.160;24.746;2024-02-21T03:36:15;100239.38;;;9.78;100.00
11343;BME280;5726;42.160;24.746;2024-02-21T03:38:41;100239.91;;;9.75;100.00
11343;BME280;5726;42.160;24.746;2024-02-21T03:41:06;100243.16;;;9.92;100.00
11343;BME280;5726;42.160;24.746;2024-02-21T03:43:32;100243.94;;;9.83;100.00
11343;BME280;5726;42.160;24.746;2024-02-21T03:45:57;100243.13;;;9.72;100.00
11343;BME280;5726;42.160;24.746;2024-02-21T03:48:23;100239.13;;;9.80;100.00
11343;BME280;5726;42.160;24.746;2024-02-21T03:50:48;100239.66;;;9.77;100.00
11343;BME280;5726;42.160;24.746;2024-02-21T03:53:14;100242.38;;;9.97;100.00
11343;BME280;5726;42.160;24.746;2024-02-21T03:55:39;100248.56;;;9.97;100.00
11343;BME280;5726;42.160;24.746;2024-02-21T03:58:05;100243.34;;;9.61;100.00
11343;BME280;5726;42.160;24.746;2024-02-21T04:00:30;100242.94;;;9.08;100.00
11343;BME280;5726;42.160;24.746;2024-02-21T04:02:56;100243.72;;;9.04;100.00
11343;BME280;5726;42.160;24.746;2024-02-21T04:05:21;100237.84;;;9.11;100.00
11343;BME280;5726;42.160;24.746;2024-02-21T04:07:47;100248.94;;;9.40;100.00
11343;BME280;5726;42.160;24.746;2024-02-21T04:10:13;100240.25;;;9.13;100.00
11343;BME280;5726;42.160;24.746;2024-02-21T04:12:38;100248.03;;;9.19;100.00
11343;BME280;5726;42.160;24.746;2024-02-21T04:15:04;100245.41;;;9.29;100.00
11343;BME280;5726;42.160;24.746;2024-02-21T04:17:30;100252.44;;;9.50;100.00
11343;BME280;5726;42.160;24.746;2024-02-21T04:20:03;100247.41;;;9.73;100.00
11343;BME280;5726;42.160;24.746;2024-02-21T04:22:34;100252.44;;;9.50;100.00
11343;BME280;5726;42.160;24.746;2024-02-21T04:25:00;100253.75;;;9.48;100.00
11343;BME280;5726;42.160;24.746;2024-02-21T04:27:26;100259.84;;;9.28;100.00
11343;BME280;5726;42.160;24.746;2024-02-21T04:29:52;100268.88;;;9.12;100.00
11343;BME280;5726;42.160;24.746;2024-02-21T04:32:18;100260.78;;;8.98;100.00
11343;BME280;5726;42.160;24.746;2024-02-21T04:34:43;100273.06;;;8.94;100.00
11343;BME280;5726;42.160;24.746;2024-02-21T04:37:09;100265.03;;;8.94;100.00
11343;BME280;5726;42.160;24.746;2024-02-21T04:39:34;100274.16;;;8.98;100.00
11343;BME280;5726;42.160;24.746;2024-02-21T04:42:00;100271.44;;;8.88;100.00
11343;BME280;5726;42.160;24.746;2024-02-21T04:44:25;100275.75;;;8.94;100.00
11343;BME280;5726;42.160;24.746;2024-02-21T04:46:51;100270.91;;;8.91;100.00
11343;BME280;5726;42.160;24.746;2024-02-21T04:49:16;100280.59;;;9.02;100.00
11343;BME280;5726;42.160;24.746;2024-02-21T04:51:42;100285.13;;;9.01;100.00
11343;BME280;5726;42.160;24.746;2024-02-21T04:54:07;100279.59;;;9.17;100.00
11343;BME280;5726;42.160;24.746;2024-02-21T04:56:34;100288.66;;;9.06;100.00
11343;BME280;5726;42.160;24.746;2024-02-21T04:58:59;100294.81;;;9.07;100.00
11343;BME280;5726;42.160;24.746;2024-02-21T05:01:25;100291.53;;;8.95;100.00
11343;BME280;5726;42.160;24.746;2024-02-21T05:03:50;100296.09;;;9.00;100.00
11343;BME280;5726;42.160;24.746;2024-02-21T05:06:16;100294.75;;;8.97;100.00
11343;BME280;5726;42.160;24.746;2024-02-21T05:08:42;100285.66;;;9.64;100.00
11343;BME280;5726;42.160;24.746;2024-02-21T05:11:07;100286.28;;;10.85;100.00
11343;BME280;5726;42.160;24.746;2024-02-21T05:13:33;100296.13;;;11.29;100.00
11343;BME280;5726;42.160;24.746;2024-02-21T05:15:58;100295.53;;;11.37;100.00
11343;BME280;5726;42.160;24.746;2024-02-21T05:18:27;100299.03;;;11.47;100.00
11343;BME280;5726;42.160;24.746;2024-02-21T05:20:53;100302.53;;;11.47;99.51
11343;BME280;5726;42.160;24.746;2024-02-21T05:23:18;100298.59;;;11.10;97.87
11343;BME280;5726;42.160;24.746;2024-02-21T05:25:44;100307.47;;;10.86;97.57
11343;BME280;5726;42.160;24.746;2024-02-21T05:28:09;100304.28;;;10.30;98.92
11343;BME280;5726;42.160;24.746;2024-02-21T05:30:35;100303.22;;;10.11;99.61
11343;BME280;5726;42.160;24.746;2024-02-21T05:33:04;100303.16;;;9.91;100.00
11343;BME280;5726;42.160;24.746;2024-02-21T05:35:30;100303.97;;;9.87;100.00
11343;BME280;5726;42.160;24.746;2024-02-21T05:37:56;100313.03;;;9.81;100.00
11343;BME280;5726;42.160;24.746;2024-02-21T05:40:21;100305.28;;;9.79;100.00
11343;BME280;5726;42.160;24.746;2024-02-21T05:42:47;100315.19;;;9.89;100.00
11343;BME280;5726;42.160;24.746;2024-02-21T05:45:12;100318.75;;;10.04;100.00
11343;BME280;5726;42.160;24.746;2024-02-21T05:47:38;100326.00;;;10.13;100.00
11343;BME280;5726;42.160;24.746;2024-02-21T05:50:04;100326.00;;;10.13;100.00
11343;BME280;5726;42.160;24.746;2024-02-21T05:52:30;100321.88;;;9.86;100.00
11343;BME280;5726;42.160;24.746;2024-02-21T05:54:55;100325.91;;;9.89;100.00
11343;BME280;5726;42.160;24.746;2024-02-21T05:57:21;100321.56;;;9.68;100.00
11343;BME280;5726;42.160;24.746;2024-02-21T05:59:46;100320.53;;;9.79;100.00
11343;BME280;5726;42.160;24.746;2024-02-21T06:02:12;100333.38;;;9.72;100.00
11343;BME280;5726;42.160;24.746;2024-02-21T06:04:38;100327.22;;;9.76;100.00
11343;BME280;5726;42.160;24.746;2024-02-21T06:07:04;100334.69;;;9.74;100.00
11343;BME280;5726;42.160;24.746;2024-02-21T06:09:30;100333.38;;;9.72;100.00
11343;BME280;5726;42.160;24.746;2024-02-21T06:11:57;100336.06;;;9.72;100.00
11343;BME280;5726;42.160;24.746;2024-02-21T06:14:22;100336.00;;;9.62;100.00
11343;BME280;5726;42.160;24.746;2024-02-21T06:16:48;100348.28;;;9.53;100.00
11343;BME280;5726;42.160;24.746;2024-02-21T06:19:13;100333.31;;;9.62;100.00
11343;BME280;5726;42.160;24.746;2024-02-21T06:21:39;100340.56;;;9.71;100.00
11343;BME280;5726;42.160;24.746;2024-02-21T06:24:04;100351.88;;;9.78;100.00
11343;BME280;5726;42.160;24.746;2024-02-21T06:26:30;100349.00;;;9.95;100.00
11343;BME280;5726;42.160;24.746;2024-02-21T06:28:55;100348.94;;;9.85;100.00
11343;BME280;5726;42.160;24.746;2024-02-21T06:31:21;100347.41;;;9.99;100.00
11343;BME280;5726;42.160;24.746;2024-02-21T06:33:46;100355.47;;;10.23;100.00
11343;BME280;5726;42.160;24.746;2024-02-21T06:36:12;100352.81;;;10.18;100.00
11343;BME280;5726;42.160;24.746;2024-02-21T06:38:38;100347.16;;;10.10;100.00
11343;BME280;5726;42.160;24.746;2024-02-21T06:41:03;100350.13;;;10.23;100.00
11343;BME280;5726;42.160;24.746;2024-02-21T06:43:29;100357.66;;;10.41;100.00
11343;BME280;5726;42.160;24.746;2024-02-21T06:45:55;100360.88;;;10.48;100.00
11343;BME280;5726;42.160;24.746;2024-02-21T06:48:22;100357.66;;;10.81;100.00
11343;BME280;5726;42.160;24.746;2024-02-21T06:50:47;100363.31;;;10.69;100.00
11343;BME280;5726;42.160;24.746;2024-02-21T06:53:13;100357.66;;;10.71;100.00
11343;BME280;5726;42.160;24.746;2024-02-21T06:55:39;100360.31;;;11.05;98.51
11343;BME280;5726;42.160;24.746;2024-02-21T06:58:04;100361.38;;;11.09;95.79
11343;BME280;5726;42.160;24.746;2024-02-21T07:00:30;100359.53;;;10.65;98.22
11343;BME280;5726;42.160;24.746;2024-02-21T07:02:55;100359.25;;;10.82;97.61
11343;BME280;5726;42.160;24.746;2024-02-21T07:05:21;100367.34;;;10.72;97.99
11343;BME280;5726;42.160;24.746;2024-02-21T07:07:47;100363.81;;;11.01;94.16
11343;BME280;5726;42.160;24.746;2024-02-21T07:10:13;100364.63;;;10.82;95.43
11343;BME280;5726;42.160;24.746;2024-02-21T07:12:38;100365.44;;;10.57;97.96
11343;BME280;5726;42.160;24.746;2024-02-21T07:15:07;100359.25;;;10.67;97.60
11343;BME280;5726;42.160;24.746;2024-02-21T07:17:32;100357.41;;;10.67;97.79
11343;BME280;5726;42.160;24.746;2024-02-21T07:19:58;100361.16;;;10.76;97.09
11343;BME280;5726;42.160;24.746;2024-02-21T07:22:24;100359.00;;;10.93;96.40
11343;BME280;5726;42.160;24.746;2024-02-21T07:24:50;100353.06;;;11.21;95.76
11343;BME280;5726;42.160;24.746;2024-02-21T07:27:16;100353.78;;;11.51;94.06
11343;BME280;5726;42.160;24.746;2024-02-21T07:29:42;100361.34;;;11.34;95.47
11343;BME280;5726;42.160;24.746;2024-02-21T07:32:07;100352.78;;;11.22;95.14
11343;BME280;5726;42.160;24.746;2024-02-21T07:34:33;100366.16;;;11.32;94.49
11343;BME280;5726;42.160;24.746;2024-02-21T07:36:58;100361.28;;;11.59;92.89
11343;BME280;5726;42.160;24.746;2024-02-21T07:39:24;100360.19;;;11.70;91.97
11343;BME280;5726;42.160;24.746;2024-02-21T07:41:49;100361.47;;;11.82;92.55
11343;BME280;5726;42.160;24.746;2024-02-21T07:44:15;100355.38;;;12.15;90.85
11343;BME280;5726;42.160;24.746;2024-02-21T07:46:41;100361.06;;;12.08;89.54
11343;BME280;5726;42.160;24.746;2024-02-21T07:49:06;100364.88;;;12.02;89.11
11343;BME280;5726;42.160;24.746;2024-02-21T07:51:32;100374.66;;;11.74;88.44
11343;BME280;5726;42.160;24.746;2024-02-21T07:53:57;100371.94;;;11.84;88.97
11343;BME280;5726;42.160;24.746;2024-02-21T07:56:23;100368.63;;;12.01;88.58
11343;BME280;5726;42.160;24.746;2024-02-21T07:58:48;100372.00;;;12.22;87.78
11343;BME280;5726;42.160;24.746;2024-02-21T08:01:20;100371.63;;;11.95;88.38
11343;BME280;5726;42.160;24.746;2024-02-21T08:03:46;100366.72;;;12.07;90.24
11343;BME280;5726;42.160;24.746;2024-02-21T08:06:12;100369.47;;;12.40;88.81
11343;BME280;5726;42.160;24.746;2024-02-21T08:08:38;100359.88;;;12.29;88.27
11343;BME280;5726;42.160;24.746;2024-02-21T08:11:04;100359.31;;;12.32;87.83
11343;BME280;5726;42.160;24.746;2024-02-21T08:13:29;100363.75;;;12.46;87.14
11343;BME280;5726;42.160;24.746;2024-02-21T08:15:55;100371.41;;;12.68;84.66
11343;BME280;5726;42.160;24.746;2024-02-21T08:18:20;100362.91;;;12.51;84.55
11343;BME280;5726;42.160;24.746;2024-02-21T08:20:46;100373.31;;;12.29;84.89
11343;BME280;5726;42.160;24.746;2024-02-21T08:23:11;100371.31;;;12.01;85.28
11343;BME280;5726;42.160;24.746;2024-02-21T08:25:37;100374.84;;;12.40;84.40
11343;BME280;5726;42.160;24.746;2024-02-21T08:28:03;100368.38;;;12.41;84.89
11343;BME280;5726;42.160;24.746;2024-02-21T08:30:28;100369.97;;;12.47;85.45
11343;BME280;5726;42.160;24.746;2024-02-21T08:32:54;100372.88;;;12.50;86.16
11343;BME280;5726;42.160;24.746;2024-02-21T08:35:19;100375.81;;;12.54;86.24
11343;BME280;5726;42.160;24.746;2024-02-21T08:37:48;100379.44;;;12.73;83.34
11343;BME280;5726;42.160;24.746;2024-02-21T08:40:14;100389.63;;;12.76;79.36
11343;BME280;5726;42.160;24.746;2024-02-21T08:42:43;100376.38;;;12.51;80.96
11343;BME280;5726;42.160;24.746;2024-02-21T08:45:09;100377.31;;;12.70;78.94
11343;BME280;5726;42.160;24.746;2024-02-21T08:47:34;100377.97;;;12.52;79.78
11343;BME280;5726;42.160;24.746;2024-02-21T08:50:03;100377.66;;;12.58;78.71
11343;BME280;5726;42.160;24.746;2024-02-21T08:52:28;100379.22;;;12.64;78.90
11343;BME280;5726;42.160;24.746;2024-02-21T08:54:54;100383.97;;;12.39;80.16
11343;BME280;5726;42.160;24.746;2024-02-21T08:57:20;100386.91;;;12.81;78.49
11343;BME280;5726;42.160;24.746;2024-02-21T08:59:45;100389.31;;;12.87;78.41
11343;BME280;5726;42.160;24.746;2024-02-21T09:02:12;100383.41;;;12.42;79.37
11343;BME280;5726;42.160;24.746;2024-02-21T09:04:38;100389.31;;;12.49;79.21
11343;BME280;5726;42.160;24.746;2024-02-21T09:07:03;100389.13;;;12.36;79.97
11343;BME280;5726;42.160;24.746;2024-02-21T09:09:29;100380.69;;;12.52;79.34
11343;BME280;5726;42.160;24.746;2024-02-21T09:11:54;100387.94;;;12.51;78.95
11343;BME280;5726;42.160;24.746;2024-02-21T09:14:20;100384.31;;;12.71;77.85
11343;BME280;5726;42.160;24.746;2024-02-21T09:16:45;100381.97;;;12.97;83.23
11343;BME280;5726;42.160;24.746;2024-02-21T09:19:11;100383.16;;;13.38;77.75
11343;BME280;5726;42.160;24.746;2024-02-21T09:21:39;100374.00;;;13.62;73.22
11343;BME280;5726;42.160;24.746;2024-02-21T09:24:06;100370.34;;;13.77;71.74
11343;BME280;5726;42.160;24.746;2024-02-21T09:26:31;100376.22;;;13.79;71.93
11343;BME280;5726;42.160;24.746;2024-02-21T09:28:57;100364.78;;;14.10;70.57
11343;BME280;5726;42.160;24.746;2024-02-21T09:31:22;100373.75;;;14.05;69.75
11343;BME280;5726;42.160;24.746;2024-02-21T09:33:48;100362.44;;;14.03;70.21
11343;BME280;5726;42.160;24.746;2024-02-21T09:36:14;100364.09;;;13.99;71.53
11343;BME280;5726;42.160;24.746;2024-02-21T09:38:40;100363.56;;;14.39;71.28
11343;BME280;5726;42.160;24.746;2024-02-21T09:41:16;100358.72;;;14.73;68.45
11343;BME280;5726;42.160;24.746;2024-02-21T09:43:43;100363.56;;;14.57;68.94
11343;BME280;5726;42.160;24.746;2024-02-21T09:46:18;100364.44;;;14.53;69.11
11343;BME280;5726;42.160;24.746;2024-02-21T09:51:18;100361.41;;;15.04;66.41
11343;BME280;5726;42.160;24.746;2024-02-21T09:53:45;100356.94;;;15.13;67.15
11343;BME280;5726;42.160;24.746;2024-02-21T09:56:11;100352.66;;;15.26;66.98
11343;BME280;5726;42.160;24.746;2024-02-21T09:58:38;100356.34;;;15.16;66.46
11343;BME280;5726;42.160;24.746;2024-02-21T10:01:03;100348.66;;;14.91;66.68
11343;BME280;5726;42.160;24.746;2024-02-21T10:03:34;100347.88;;;15.23;66.05
11343;BME280;5726;42.160;24.746;2024-02-21T10:06:00;100341.88;;;15.26;66.43
11343;BME280;5726;42.160;24.746;2024-02-21T10:08:26;100344.28;;;15.27;64.63
11343;BME280;5726;42.160;24.746;2024-02-21T10:10:52;100335.88;;;15.29;66.65
11343;BME280;5726;42.160;24.746;2024-02-21T10:13:28;100331.78;;;15.31;65.95
11343;BME280;5726;42.160;24.746;2024-02-21T10:16:02;100331.91;;;15.08;65.40
11343;BME280;5726;42.160;24.746;2024-02-21T10:18:28;100325.84;;;15.16;64.73
11343;BME280;5726;42.160;24.746;2024-02-21T10:21:05;100323.84;;;15.21;65.73
11343;BME280;5726;42.160;24.746;2024-02-21T10:23:44;100310.94;;;14.73;65.31
11343;BME280;5726;42.160;24.746;2024-02-21T10:26:10;100320.41;;;15.02;63.12
11343;BME280;5726;42.160;24.746;2024-02-21T10:28:37;100305.31;;;15.15;63.92
11343;BME280;5726;42.160;24.746;2024-02-21T10:31:07;100299.41;;;14.99;64.55
11343;BME280;5726;42.160;24.746;2024-02-21T10:33:33;100290.59;;;15.07;65.03
11343;BME280;5726;42.160;24.746;2024-02-21T10:36:08;100291.00;;;15.14;64.66
11343;BME280;5726;42.160;24.746;2024-02-21T10:38:38;100285.97;;;14.94;63.30
11343;BME280;5726;42.160;24.746;2024-02-21T10:41:07;100284.09;;;15.08;63.86
11343;BME280;5726;42.160;24.746;2024-02-21T10:43:40;100277.63;;;15.23;62.91
11343;BME280;5726;42.160;24.746;2024-02-21T10:46:07;100285.59;;;15.14;63.42
11343;BME280;5726;42.160;24.746;2024-02-21T10:48:42;100270.91;;;15.33;62.75
11343;BME280;5726;42.160;24.746;2024-02-21T10:51:16;100267.31;;;15.38;62.46
11343;BME280;5726;42.160;24.746;2024-02-21T10:58:58;100250.63;;;15.84;60.44
11343;BME280;5726;42.160;24.746;2024-02-21T11:01:23;100246.16;;;15.67;60.46
11343;BME280;5726;42.160;24.746;2024-02-21T11:03:53;100233.56;;;15.49;60.33
11343;BME280;5726;42.160;24.746;2024-02-21T11:06:20;100228.19;;;15.35;61.04
11343;BME280;5726;42.160;24.746;2024-02-21T11:08:47;100233.94;;;15.56;58.78
11343;BME280;5726;42.160;24.746;2024-02-21T11:11:13;100233.00;;;15.25;60.90
11343;BME280;5726;42.160;24.746;2024-02-21T11:13:43;100226.09;;;15.19;61.42
11343;BME280;5726;42.160;24.746;2024-02-21T11:16:12;100226.97;;;15.55;61.53
11343;BME280;5726;42.160;24.746;2024-02-21T11:18:46;100211.84;;;15.89;63.52
11343;BME280;5726;42.160;24.746;2024-02-21T11:21:12;100223.94;;;15.70;59.91
11343;BME280;5726;42.160;24.746;2024-02-21T11:23:37;100221.00;;;16.01;58.92
11343;BME280;5726;42.160;24.746;2024-02-21T11:26:06;100220.63;;;15.94;58.53
11343;BME280;5726;42.160;24.746;2024-02-21T11:28:32;100218.22;;;15.93;58.30
11343;BME280;5726;42.160;24.746;2024-02-21T11:31:24;100207.31;;;15.63;61.03
11343;BME280;5726;42.160;24.746;2024-02-21T11:33:53;100209.50;;;15.74;61.47
11343;BME280;5726;42.160;24.746;2024-02-21T11:36:27;100201.06;;;15.76;61.14
11343;BME280;5726;42.160;24.746;2024-02-21T11:38:53;100211.06;;;16.10;59.20
11343;BME280;5726;42.160;24.746;2024-02-21T11:41:20;100206.22;;;15.85;58.43
11343;BME280;5726;42.160;24.746;2024-02-21T11:43:49;100204.03;;;15.87;58.67
11343;BME280;5726;42.160;24.746;2024-02-21T11:46:15;100197.50;;;15.67;58.80
11343;BME280;5726;42.160;24.746;2024-02-21T11:48:42;100192.00;;;15.58;58.73
11343;BME280;5726;42.160;24.746;2024-02-21T11:51:21;100192.63;;;15.90;58.55
11343;BME280;5726;42.160;24.746;2024-02-21T11:53:46;100191.56;;;16.00;58.16
11343;BME280;5726;42.160;24.746;2024-02-21T11:56:13;100186.25;;;15.73;57.77
11343;BME280;5726;42.160;24.746;2024-02-21T11:58:39;100189.91;;;15.90;56.28
11343;BME280;5726;42.160;24.746;2024-02-21T12:01:04;100186.72;;;16.10;55.50
11343;BME280;5726;42.160;24.746;2024-02-21T12:03:31;100184.66;;;16.29;55.14
11343;BME280;5726;42.160;24.746;2024-02-21T12:05:57;100176.84;;;15.71;56.01
11343;BME280;5726;42.160;24.746;2024-02-21T12:08:24;100177.81;;;15.39;56.59
11343;BME280;5726;42.160;24.746;2024-02-21T12:10:49;100175.88;;;15.18;57.66
11343;BME280;5726;42.160;24.746;2024-02-21T12:13:16;100163.38;;;15.22;56.55
11343;BME280;5726;42.160;24.746;2024-02-21T12:15:47;100166.47;;;15.02;57.61
11343;BME280;5726;42.160;24.746;2024-02-21T12:18:14;100165.88;;;15.19;57.01
11343;BME280;5726;42.160;24.746;2024-02-21T12:20:40;100158.72;;;15.36;56.68
11343;BME280;5726;42.160;24.746;2024-02-21T12:23:09;100151.88;;;15.52;55.92
11343;BME280;5726;42.160;24.746;2024-02-21T12:25:35;100152.25;;;15.59;55.46
11343;BME280;5726;42.160;24.746;2024-02-21T12:28:01;100149.53;;;15.37;55.91
11343;BME280;5726;42.160;24.746;2024-02-21T12:30:26;100149.84;;;15.22;56.29
11343;BME280;5726;42.160;24.746;2024-02-21T12:32:52;100141.81;;;15.66;54.99
11343;BME280;5726;42.160;24.746;2024-02-21T12:35:18;100130.66;;;15.45;55.35
11343;BME280;5726;42.160;24.746;2024-02-21T12:37:44;100136.47;;;15.52;55.17
11343;BME280;5726;42.160;24.746;2024-02-21T12:40:10;100138.03;;;15.67;55.04
11343;BME280;5726;42.160;24.746;2024-02-21T12:42:36;100135.31;;;15.88;54.16
11343;BME280;5726;42.160;24.746;2024-02-21T12:45:02;100134.22;;;15.89;53.99
11343;BME280;5726;42.160;24.746;2024-02-21T12:47:28;100123.69;;;16.10;53.74
11343;BME280;5726;42.160;24.746;2024-02-21T12:49:54;100111.69;;;16.24;52.69
11343;BME280;5726;42.160;24.746;2024-02-21T12:52:19;100115.06;;;16.29;52.79
11343;BME280;5726;42.160;24.746;2024-02-21T12:54:45;100098.38;;;15.62;54.30